KBVI

Beaver County Airport

Beaver Falls, Pennsylvania, USA
KBVI 151125Z 1512/1612 25004KT P6SM FEW250 FM151400 25005KT P6SM SCT050 BKN250 FM160300 00000KT P6SM BKN070 AMD NOT SKED
Issued Valid From Valid To
Aug-15 @ 11:25 UTC
(an hour ago)
Aug-15 @ 12:00 UTC
(40 minutes ago)
Aug-16 @ 12:00 UTC
(in 23 hours)
Aug-15 @ 12:00 to Aug-15 @ 14:00
KBVI 151125Z 1512/1612 25004KT P6SM FEW250
Wind Visibility Clouds
250° at 4 knots Greater than 6 miles
  • Few at 25,000' AGL
From Aug-15 @ 14:00 to Aug-16 @ 03:00
FM151400 25005KT P6SM SCT050 BKN250
Wind Visibility Clouds
250° at 5 knots Greater than 6 miles
  • Scattered at 5,000' AGL
  • Broken at 25,000' AGL
From Aug-16 @ 03:00 to Aug-16 @ 12:00
FM160300 00000KT P6SM BKN070 AMD NOT SKED
Visibility Clouds
Greater than 6 miles
  • Broken at 7,000' AGL
KBVI 151125Z 1512/1612 25004KT P6SM FEW250 FM151400 25005KT P6SM SCT050 BKN250 FM160300 00000KT P6SM BKN070 AMD NOT SKED
Issued Aug-15 @ 11:25 UTC
(an hour ago)
Valid From Aug-15 @ 12:00 UTC
(40 minutes ago)
Valid To Aug-16 @ 12:00 UTC
(in 23 hours)
Aug-15 @ 12:00 - Aug-15 @ 14:00
Wind Visibility
250° at 4 knots Greater than 6 miles
Clouds
  • Few at 25,000' AGL
From Aug-15 @ 14:00 - Aug-16 @ 03:00
Wind Visibility
250° at 5 knots Greater than 6 miles
Clouds
  • Scattered at 5,000' AGL
  • Broken at 25,000' AGL
From Aug-16 @ 03:00 - Aug-16 @ 12:00
Clouds
  • Broken at 7,000' AGL